SCX214 KTPA-KMSP
Flight info
| Callsign | SCX214 |
|---|---|
| Flight time | N/A |
| Altitude | 34000 |
| Route | ENDED2 LACEN DCT PATOY Q116 DEEDA DCT VLKNN DCT MSL DCT STL DCT MNOSO BLUEM5 |
| Aircraft | B739/M-SDE2E3FGHIRWXY/LB1 |
Departure
| Time | 2026-05-05 03:23 |
|---|---|
| Airport | Tampa International Airport (KTPA) |
Arrival
| Time | N/A |
|---|---|
| Airport | Minneapolis–Saint Paul International Airport / Wold–Chamberlain Field (KMSP) |
| Time | Latitude | Longitude | Altitude | Speed | Heading |
|---|---|---|---|---|---|
| 2026-05-05 02:48 | 27.97688 | -82.53151 | 42 ft | 0 kts | 281° |
| 2026-05-05 03:09 | 27.97688 | -82.53149 | 42 ft | 2 kts | 281° |
| 2026-05-05 03:10 | 27.97684 | -82.53121 | 42 ft | 4 kts | 271° |
| 2026-05-05 03:10 | 27.97687 | -82.53091 | 42 ft | 4 kts | 252° |
| 2026-05-05 03:10 | 27.97699 | -82.53068 | 36 ft | 4 kts | 208° |
| 2026-05-05 03:10 | 27.97709 | -82.53064 | 41 ft | 1 kts | 181° |
| 2026-05-05 03:11 | 27.97710 | -82.53064 | 41 ft | 0 kts | 181° |
| 2026-05-05 03:14 | 27.97689 | -82.53064 | 40 ft | 7 kts | 181° |
| 2026-05-05 03:14 | 27.97612 | -82.53066 | 42 ft | 14 kts | 182° |
| 2026-05-05 03:15 | 27.97503 | -82.53071 | 42 ft | 17 kts | 182° |
| 2026-05-05 03:15 | 27.97419 | -82.53074 | 42 ft | 3 kts | 182° |
| 2026-05-05 03:15 | 27.97398 | -82.53075 | 42 ft | 3 kts | 182° |
| 2026-05-05 03:15 | 27.97377 | -82.53075 | 42 ft | 3 kts | 182° |
| 2026-05-05 03:16 | 27.97355 | -82.53076 | 42 ft | 5 kts | 182° |
| 2026-05-05 03:16 | 27.97308 | -82.53118 | 42 ft | 13 kts | 265° |
| 2026-05-05 03:16 | 27.97310 | -82.53230 | 42 ft | 16 kts | 272° |
| 2026-05-05 03:16 | 27.97314 | -82.53373 | 43 ft | 20 kts | 272° |
| 2026-05-05 03:17 | 27.97323 | -82.53523 | 46 ft | 19 kts | 279° |
| 2026-05-05 03:17 | 27.97365 | -82.53664 | 49 ft | 19 kts | 298° |
| 2026-05-05 03:17 | 27.97436 | -82.53790 | 47 ft | 20 kts | 303° |
| 2026-05-05 03:17 | 27.97507 | -82.53921 | 44 ft | 18 kts | 287° |
| 2026-05-05 03:18 | 27.97516 | -82.54047 | 46 ft | 14 kts | 248° |
| 2026-05-05 03:18 | 27.97428 | -82.54075 | 47 ft | 13 kts | 181° |
| 2026-05-05 03:18 | 27.97331 | -82.54078 | 47 ft | 15 kts | 182° |
| 2026-05-05 03:18 | 27.97220 | -82.54082 | 47 ft | 17 kts | 181° |
| 2026-05-05 03:19 | 27.96967 | -82.54091 | 48 ft | 19 kts | 181° |
| 2026-05-05 03:19 | 27.96839 | -82.54095 | 48 ft | 18 kts | 182° |
| 2026-05-05 03:19 | 27.96716 | -82.54099 | 48 ft | 17 kts | 181° |
| 2026-05-05 03:20 | 27.96598 | -82.54104 | 48 ft | 17 kts | 182° |
| 2026-05-05 03:20 | 27.96483 | -82.54107 | 47 ft | 16 kts | 181° |
| 2026-05-05 03:20 | 27.96375 | -82.54112 | 46 ft | 15 kts | 192° |
| 2026-05-05 03:20 | 27.96339 | -82.54179 | 46 ft | 10 kts | 271° |
| 2026-05-05 03:21 | 27.96349 | -82.54232 | 44 ft | 6 kts | 329° |
| 2026-05-05 03:21 | 27.96365 | -82.54234 | 46 ft | 0 kts | 359° |
| 2026-05-05 03:22 | 27.96475 | -82.54232 | 48 ft | 47 kts | 1° |
| 2026-05-05 03:22 | 27.97040 | -82.54212 | 49 ft | 113 kts | 1° |
| 2026-05-05 03:22 | 27.98019 | -82.54176 | 51 ft | 165 kts | 4° |
| 2026-05-05 03:22 | 27.99209 | -82.54140 | 483 ft | 176 kts | 4° |
| 2026-05-05 03:23 | 28.00468 | -82.54129 | 1016 ft | 184 kts | 4° |
| 2026-05-05 03:23 | 28.01740 | -82.54108 | 1663 ft | 186 kts | 2° |
| 2026-05-05 03:23 | 28.03084 | -82.54284 | 1939 ft | 209 kts | 356° |
| 2026-05-05 03:23 | 28.04600 | -82.54504 | 2102 ft | 230 kts | 357° |
| 2026-05-05 03:24 | 28.06226 | -82.54929 | 2321 ft | 252 kts | 335° |
| 2026-05-05 03:24 | 28.07758 | -82.55976 | 2689 ft | 267 kts | 329° |
| 2026-05-05 03:24 | 28.09377 | -82.57135 | 3140 ft | 279 kts | 329° |
| 2026-05-05 03:24 | 28.11007 | -82.58284 | 3982 ft | 274 kts | 328° |
| 2026-05-05 03:25 | 28.12649 | -82.59424 | 4719 ft | 277 kts | 328° |
| 2026-05-05 03:25 | 28.14286 | -82.60544 | 5547 ft | 274 kts | 327° |
| 2026-05-05 03:25 | 28.15939 | -82.61666 | 6173 ft | 280 kts | 327° |
| 2026-05-05 03:25 | 28.17612 | -82.62795 | 6860 ft | 281 kts | 327° |
| 2026-05-05 03:26 | 28.19297 | -82.63927 | 7529 ft | 282 kts | 327° |
| 2026-05-05 03:26 | 28.20985 | -82.65058 | 8234 ft | 282 kts | 327° |
| 2026-05-05 03:26 | 28.22677 | -82.66191 | 8923 ft | 283 kts | 327° |
| 2026-05-05 03:26 | 28.24376 | -82.67328 | 9613 ft | 284 kts | 327° |
| 2026-05-05 03:27 | 28.26061 | -82.68455 | 10242 ft | 287 kts | 327° |
| 2026-05-05 03:27 | 28.27829 | -82.69640 | 10429 ft | 307 kts | 327° |
| 2026-05-05 03:27 | 28.29717 | -82.70905 | 10735 ft | 319 kts | 327° |
| 2026-05-05 03:27 | 28.31645 | -82.72195 | 11287 ft | 323 kts | 327° |
| 2026-05-05 03:28 | 28.33582 | -82.73489 | 11907 ft | 324 kts | 327° |
| 2026-05-05 03:28 | 28.35532 | -82.74794 | 12463 ft | 327 kts | 327° |
| 2026-05-05 03:28 | 28.37503 | -82.76114 | 13038 ft | 329 kts | 327° |
| 2026-05-05 03:28 | 28.39488 | -82.77436 | 13571 ft | 332 kts | 329° |
| 2026-05-05 03:29 | 28.41630 | -82.78474 | 14090 ft | 338 kts | 340° |
| 2026-05-05 03:29 | 28.43951 | -82.79017 | 14586 ft | 342 kts | 349° |
| 2026-05-05 03:29 | 28.46315 | -82.79378 | 15101 ft | 344 kts | 349° |
| 2026-05-05 03:29 | 28.48700 | -82.79726 | 15587 ft | 346 kts | 349° |
| 2026-05-05 03:30 | 28.51103 | -82.80089 | 16091 ft | 348 kts | 349° |
| 2026-05-05 03:30 | 28.53505 | -82.80469 | 16603 ft | 349 kts | 348° |
| 2026-05-05 03:30 | 28.55884 | -82.80852 | 17087 ft | 351 kts | 348° |
| 2026-05-05 03:30 | 28.58313 | -82.81252 | 17565 ft | 353 kts | 348° |
| 2026-05-05 03:31 | 28.60749 | -82.81682 | 18044 ft | 355 kts | 347° |
| 2026-05-05 03:31 | 28.63196 | -82.82128 | 18509 ft | 357 kts | 347° |
| 2026-05-05 03:31 | 28.65664 | -82.82580 | 18935 ft | 359 kts | 347° |
| 2026-05-05 03:31 | 28.68135 | -82.83032 | 19338 ft | 361 kts | 347° |
| 2026-05-05 03:32 | 28.70621 | -82.83485 | 19759 ft | 363 kts | 346° |
| 2026-05-05 03:32 | 28.73125 | -82.83940 | 20193 ft | 365 kts | 346° |
| 2026-05-05 03:32 | 28.75640 | -82.84397 | 20594 ft | 367 kts | 346° |
| 2026-05-05 03:32 | 28.78170 | -82.84855 | 21003 ft | 368 kts | 346° |
| 2026-05-05 03:33 | 28.80710 | -82.85315 | 21416 ft | 370 kts | 346° |
| 2026-05-05 03:33 | 28.83258 | -82.85777 | 21834 ft | 371 kts | 345° |
| 2026-05-05 03:33 | 28.85778 | -82.86234 | 22257 ft | 372 kts | 345° |
| 2026-05-05 03:33 | 28.88345 | -82.86700 | 22626 ft | 374 kts | 345° |
| 2026-05-05 03:34 | 28.90927 | -82.87169 | 22996 ft | 376 kts | 345° |
| 2026-05-05 03:34 | 28.93522 | -82.87640 | 23386 ft | 378 kts | 345° |
| 2026-05-05 03:34 | 28.96125 | -82.88113 | 23755 ft | 379 kts | 345° |
| 2026-05-05 03:34 | 28.98740 | -82.88588 | 24099 ft | 380 kts | 345° |
| 2026-05-05 03:35 | 29.01353 | -82.89063 | 24471 ft | 379 kts | 344° |
| 2026-05-05 03:35 | 29.03081 | -82.89378 | 24718 ft | 379 kts | 343° |
| 2026-05-05 03:35 | 29.06391 | -82.90481 | 25173 ft | 370 kts | 331° |
| 2026-05-05 03:35 | 29.07965 | -82.91308 | 25417 ft | 367 kts | 327° |
| 2026-05-05 03:36 | 29.10776 | -82.93400 | 25860 ft | 363 kts | 320° |
| 2026-05-05 03:36 | 29.12159 | -82.94544 | 26096 ft | 363 kts | 319° |
| 2026-05-05 03:36 | 29.14200 | -82.96246 | 26438 ft | 363 kts | 319° |
| 2026-05-05 03:36 | 29.16251 | -82.97951 | 26772 ft | 364 kts | 320° |
| 2026-05-05 03:37 | 29.18282 | -82.99628 | 27093 ft | 364 kts | 320° |
| 2026-05-05 03:37 | 29.20342 | -83.01322 | 27418 ft | 365 kts | 320° |
| 2026-05-05 03:37 | 29.22408 | -83.03017 | 27738 ft | 365 kts | 320° |
| 2026-05-05 03:37 | 29.24479 | -83.04715 | 28056 ft | 366 kts | 320° |
| 2026-05-05 03:38 | 29.26556 | -83.06418 | 28364 ft | 366 kts | 320° |
| 2026-05-05 03:38 | 29.28631 | -83.08118 | 28671 ft | 367 kts | 320° |
| 2026-05-05 03:38 | 29.30711 | -83.09824 | 28978 ft | 367 kts | 320° |
| 2026-05-05 03:38 | 29.32788 | -83.11528 | 29280 ft | 368 kts | 320° |
| 2026-05-05 03:39 | 29.34873 | -83.13239 | 29571 ft | 369 kts | 320° |
| 2026-05-05 03:39 | 29.36934 | -83.14932 | 29854 ft | 369 kts | 320° |
| 2026-05-05 03:39 | 29.39027 | -83.16652 | 30141 ft | 370 kts | 320° |
| 2026-05-05 03:39 | 29.41122 | -83.18374 | 30378 ft | 370 kts | 320° |
| 2026-05-05 03:40 | 29.43219 | -83.20099 | 30630 ft | 370 kts | 320° |
| 2026-05-05 03:40 | 29.45318 | -83.21826 | 30868 ft | 370 kts | 320° |
| 2026-05-05 03:40 | 29.47409 | -83.23549 | 31115 ft | 370 kts | 321° |
| 2026-05-05 03:40 | 29.49503 | -83.25275 | 31350 ft | 370 kts | 321° |
| 2026-05-05 03:41 | 29.51597 | -83.27001 | 31567 ft | 371 kts | 321° |
| 2026-05-05 03:41 | 29.53699 | -83.28735 | 31795 ft | 371 kts | 321° |
| 2026-05-05 03:41 | 29.55767 | -83.30441 | 32016 ft | 371 kts | 321° |
| 2026-05-05 03:41 | 29.57864 | -83.32174 | 32070 ft | 373 kts | 321° |
| 2026-05-05 03:42 | 29.62085 | -83.35662 | 32077 ft | 373 kts | 321° |
| 2026-05-05 03:42 | 29.66280 | -83.39132 | 32082 ft | 370 kts | 321° |
| 2026-05-05 03:43 | 29.70454 | -83.42589 | 32077 ft | 368 kts | 321° |
| 2026-05-05 03:43 | 29.74614 | -83.46038 | 32078 ft | 367 kts | 321° |
| 2026-05-05 03:44 | 29.78734 | -83.49458 | 32077 ft | 367 kts | 321° |
| 2026-05-05 03:44 | 29.82881 | -83.52904 | 32078 ft | 368 kts | 321° |
| 2026-05-05 03:45 | 29.87038 | -83.56359 | 32084 ft | 369 kts | 321° |
| 2026-05-05 03:45 | 29.91209 | -83.59814 | 32084 ft | 370 kts | 321° |
| 2026-05-05 03:46 | 29.95390 | -83.63280 | 32088 ft | 370 kts | 321° |
| 2026-05-05 03:46 | 29.99580 | -83.66758 | 32088 ft | 371 kts | 321° |
| 2026-05-05 03:47 | 30.03750 | -83.70224 | 32081 ft | 371 kts | 321° |
| 2026-05-05 03:47 | 30.07946 | -83.73716 | 32077 ft | 371 kts | 321° |
| 2026-05-05 03:48 | 30.12131 | -83.77203 | 32075 ft | 371 kts | 321° |
| 2026-05-05 03:48 | 30.16290 | -83.80671 | 32078 ft | 370 kts | 320° |
| 2026-05-05 03:49 | 30.20459 | -83.84158 | 32080 ft | 369 kts | 320° |
| 2026-05-05 03:49 | 30.24607 | -83.87643 | 32069 ft | 368 kts | 320° |
| 2026-05-05 03:50 | 30.28741 | -83.91121 | 32065 ft | 367 kts | 320° |
| 2026-05-05 03:50 | 30.32862 | -83.94591 | 32065 ft | 366 kts | 320° |
| 2026-05-05 03:51 | 30.36948 | -83.98035 | 32066 ft | 365 kts | 320° |
| 2026-05-05 03:51 | 30.41048 | -84.01494 | 32071 ft | 364 kts | 320° |
| 2026-05-05 03:52 | 30.45149 | -84.04958 | 32069 ft | 364 kts | 320° |
| 2026-05-05 03:52 | 30.49244 | -84.08421 | 32076 ft | 364 kts | 320° |
| 2026-05-05 03:53 | 30.53341 | -84.11890 | 32070 ft | 364 kts | 320° |
| 2026-05-05 03:53 | 30.57409 | -84.15336 | 32073 ft | 365 kts | 320° |
| 2026-05-05 03:54 | 30.61513 | -84.18817 | 32072 ft | 365 kts | 320° |
| 2026-05-05 03:54 | 30.65616 | -84.22301 | 32067 ft | 365 kts | 320° |
| 2026-05-05 03:55 | 30.69721 | -84.25792 | 32069 ft | 365 kts | 320° |
| 2026-05-05 03:55 | 30.73799 | -84.29262 | 32064 ft | 365 kts | 320° |
| 2026-05-05 03:56 | 30.77905 | -84.32759 | 32062 ft | 365 kts | 320° |
| 2026-05-05 03:56 | 30.82008 | -84.36259 | 32068 ft | 366 kts | 320° |
| 2026-05-05 03:57 | 30.86113 | -84.39764 | 32073 ft | 366 kts | 320° |
| 2026-05-05 03:57 | 30.90188 | -84.43247 | 32076 ft | 365 kts | 320° |
| 2026-05-05 03:58 | 30.94291 | -84.46757 | 32078 ft | 365 kts | 320° |
| 2026-05-05 03:58 | 30.98383 | -84.50261 | 32083 ft | 364 kts | 320° |
| 2026-05-05 03:59 | 31.02440 | -84.53740 | 32079 ft | 364 kts | 320° |
| 2026-05-05 03:59 | 31.06513 | -84.57237 | 32082 ft | 363 kts | 320° |
| 2026-05-05 04:00 | 31.10585 | -84.60735 | 32081 ft | 362 kts | 320° |
| 2026-05-05 04:00 | 31.14638 | -84.64222 | 32079 ft | 362 kts | 320° |
| 2026-05-05 04:01 | 31.18663 | -84.67689 | 32074 ft | 361 kts | 320° |
| 2026-05-05 04:01 | 31.22706 | -84.71174 | 32082 ft | 360 kts | 320° |
| 2026-05-05 04:02 | 31.26740 | -84.74657 | 32084 ft | 360 kts | 320° |
| 2026-05-05 04:02 | 31.30776 | -84.78144 | 32090 ft | 360 kts | 319° |
| 2026-05-05 04:03 | 31.34786 | -84.81612 | 32082 ft | 360 kts | 319° |
| 2026-05-05 04:03 | 31.38824 | -84.85109 | 32095 ft | 361 kts | 319° |
| 2026-05-05 04:04 | 31.42862 | -84.88610 | 32088 ft | 362 kts | 319° |
| 2026-05-05 04:04 | 31.46912 | -84.92125 | 32084 ft | 362 kts | 319° |
| 2026-05-05 04:05 | 31.50970 | -84.95652 | 32082 ft | 363 kts | 319° |
| 2026-05-05 04:05 | 31.55002 | -84.99158 | 32084 ft | 363 kts | 319° |
| 2026-05-05 04:06 | 31.59063 | -85.02696 | 32075 ft | 363 kts | 319° |
| 2026-05-05 04:06 | 31.63117 | -85.06242 | 32070 ft | 364 kts | 319° |
| 2026-05-05 04:07 | 31.67177 | -85.09799 | 32067 ft | 364 kts | 319° |
| 2026-05-05 04:07 | 31.71228 | -85.13352 | 32061 ft | 364 kts | 319° |
| 2026-05-05 04:08 | 31.75256 | -85.16888 | 32065 ft | 363 kts | 319° |
| 2026-05-05 04:08 | 31.79309 | -85.20450 | 32066 ft | 363 kts | 319° |
| 2026-05-05 04:09 | 31.83363 | -85.24017 | 32066 ft | 363 kts | 319° |
| 2026-05-05 04:09 | 31.87387 | -85.27562 | 32062 ft | 363 kts | 319° |
| 2026-05-05 04:10 | 31.91431 | -85.31128 | 32067 ft | 363 kts | 319° |
| 2026-05-05 04:10 | 31.95477 | -85.34700 | 32056 ft | 363 kts | 319° |
| 2026-05-05 04:11 | 31.99517 | -85.38270 | 32056 ft | 363 kts | 319° |
| 2026-05-05 04:11 | 32.03561 | -85.41848 | 32048 ft | 363 kts | 319° |
| 2026-05-05 04:12 | 32.07579 | -85.45408 | 32047 ft | 363 kts | 319° |
| 2026-05-05 04:12 | 32.11626 | -85.48997 | 32041 ft | 364 kts | 319° |
| 2026-05-05 04:13 | 32.15674 | -85.52591 | 32039 ft | 364 kts | 319° |
| 2026-05-05 04:13 | 32.19728 | -85.56194 | 32037 ft | 365 kts | 319° |
| 2026-05-05 04:14 | 32.23763 | -85.59786 | 32035 ft | 366 kts | 319° |
| 2026-05-05 04:14 | 32.27831 | -85.63409 | 32028 ft | 366 kts | 319° |
| 2026-05-05 04:15 | 32.31911 | -85.67048 | 32031 ft | 367 kts | 319° |
| 2026-05-05 04:15 | 32.35992 | -85.70692 | 32033 ft | 367 kts | 319° |
| 2026-05-05 04:16 | 32.40049 | -85.74319 | 32029 ft | 368 kts | 319° |
| 2026-05-05 04:16 | 32.44139 | -85.77979 | 32021 ft | 368 kts | 319° |
| 2026-05-05 04:17 | 32.48220 | -85.81636 | 32016 ft | 368 kts | 319° |
| 2026-05-05 04:17 | 32.52300 | -85.85296 | 32016 ft | 368 kts | 319° |
| 2026-05-05 04:18 | 32.56381 | -85.88961 | 32015 ft | 368 kts | 319° |
| 2026-05-05 04:18 | 32.60431 | -85.92603 | 32012 ft | 368 kts | 319° |
| 2026-05-05 04:19 | 32.64514 | -85.96279 | 32003 ft | 368 kts | 319° |
| 2026-05-05 04:19 | 32.68595 | -85.99957 | 32008 ft | 368 kts | 319° |
| 2026-05-05 04:20 | 32.72685 | -86.03649 | 32007 ft | 369 kts | 320° |
| 2026-05-05 04:20 | 32.76752 | -86.07322 | 32004 ft | 369 kts | 319° |
| 2026-05-05 04:21 | 32.80848 | -86.11027 | 32002 ft | 370 kts | 320° |
| 2026-05-05 04:21 | 32.84951 | -86.14743 | 32012 ft | 370 kts | 320° |
| 2026-05-05 04:22 | 32.89032 | -86.18443 | 32017 ft | 371 kts | 320° |
| 2026-05-05 04:22 | 32.93143 | -86.22175 | 32024 ft | 372 kts | 320° |
| 2026-05-05 04:23 | 32.97268 | -86.25924 | 32036 ft | 373 kts | 320° |
| 2026-05-05 04:23 | 33.01396 | -86.29680 | 32048 ft | 373 kts | 320° |
| 2026-05-05 04:24 | 33.05499 | -86.33419 | 32041 ft | 374 kts | 320° |
| 2026-05-05 04:25 | 33.11703 | -86.39078 | 32048 ft | 374 kts | 319° |
| 2026-05-05 04:25 | 33.15841 | -86.42859 | 32036 ft | 374 kts | 319° |
| 2026-05-05 04:26 | 33.19964 | -86.46632 | 32430 ft | 375 kts | 319° |
| 2026-05-05 04:26 | 33.22026 | -86.48520 | 32758 ft | 373 kts | 319° |
| 2026-05-05 04:26 | 33.24086 | -86.50407 | 32995 ft | 373 kts | 319° |
| 2026-05-05 04:26 | 33.26144 | -86.52294 | 33184 ft | 374 kts | 319° |
| 2026-05-05 04:27 | 33.28208 | -86.54188 | 33401 ft | 374 kts | 319° |
| 2026-05-05 04:27 | 33.30270 | -86.56081 | 33654 ft | 373 kts | 319° |
| 2026-05-05 04:27 | 33.32321 | -86.57965 | 33946 ft | 371 kts | 319° |
| 2026-05-05 04:28 | 33.36421 | -86.61734 | 34028 ft | 373 kts | 319° |
| 2026-05-05 04:28 | 33.40542 | -86.65528 | 34035 ft | 374 kts | 319° |
| 2026-05-05 04:29 | 33.43976 | -86.68691 | 34040 ft | 375 kts | 319° |
| 2026-05-05 04:29 | 33.48117 | -86.72514 | 34054 ft | 377 kts | 319° |
| 2026-05-05 04:30 | 33.52275 | -86.76356 | 34047 ft | 378 kts | 319° |
| 2026-05-05 04:30 | 33.56440 | -86.80208 | 34045 ft | 378 kts | 319° |
| 2026-05-05 04:31 | 33.60606 | -86.84067 | 34049 ft | 378 kts | 319° |
| 2026-05-05 04:31 | 33.64773 | -86.87930 | 34043 ft | 378 kts | 319° |
| 2026-05-05 04:32 | 33.69227 | -86.91323 | 34032 ft | 383 kts | 329° |
| 2026-05-05 04:32 | 33.74067 | -86.94024 | 34011 ft | 383 kts | 330° |
| 2026-05-05 04:33 | 33.78905 | -86.96726 | 34002 ft | 383 kts | 329° |
| 2026-05-05 04:33 | 33.83736 | -86.99445 | 34001 ft | 383 kts | 329° |
| 2026-05-05 04:34 | 33.88540 | -87.02160 | 33996 ft | 384 kts | 329° |
| 2026-05-05 04:34 | 33.93379 | -87.04903 | 34002 ft | 384 kts | 330° |
| 2026-05-05 04:35 | 33.98222 | -87.07651 | 33999 ft | 385 kts | 329° |
| 2026-05-05 04:35 | 34.03067 | -87.10403 | 34000 ft | 385 kts | 329° |
| 2026-05-05 04:36 | 34.07891 | -87.13147 | 33995 ft | 386 kts | 329° |
| 2026-05-05 04:36 | 34.12759 | -87.15920 | 33999 ft | 387 kts | 329° |
| 2026-05-05 04:37 | 34.17633 | -87.18701 | 33989 ft | 388 kts | 329° |
| 2026-05-05 04:37 | 34.22528 | -87.21496 | 33986 ft | 389 kts | 330° |
| 2026-05-05 04:38 | 34.27429 | -87.24298 | 33983 ft | 390 kts | 330° |
| 2026-05-05 04:38 | 34.32342 | -87.27110 | 33981 ft | 391 kts | 330° |
| 2026-05-05 04:39 | 34.37267 | -87.29933 | 33973 ft | 392 kts | 330° |
| 2026-05-05 04:39 | 34.42202 | -87.32766 | 33970 ft | 392 kts | 330° |
| 2026-05-05 04:40 | 34.47128 | -87.35597 | 33967 ft | 392 kts | 330° |
| 2026-05-05 04:40 | 34.52059 | -87.38435 | 33982 ft | 392 kts | 329° |
| 2026-05-05 04:41 | 34.56990 | -87.41277 | 33970 ft | 392 kts | 329° |
| 2026-05-05 04:41 | 34.61889 | -87.44105 | 33970 ft | 393 kts | 330° |
| 2026-05-05 04:42 | 34.66823 | -87.46955 | 33977 ft | 393 kts | 330° |
| 2026-05-05 04:42 | 34.71738 | -87.49854 | 33977 ft | 392 kts | 327° |
| 2026-05-05 04:43 | 34.76506 | -87.53044 | 33983 ft | 391 kts | 326° |
| 2026-05-05 04:43 | 34.81248 | -87.56300 | 33981 ft | 391 kts | 326° |
| 2026-05-05 04:44 | 34.85997 | -87.59552 | 33984 ft | 392 kts | 326° |
| 2026-05-05 04:44 | 34.90753 | -87.62795 | 33976 ft | 392 kts | 326° |
| 2026-05-05 04:45 | 34.95517 | -87.66041 | 33967 ft | 393 kts | 326° |
| 2026-05-05 04:45 | 35.00289 | -87.69294 | 33965 ft | 393 kts | 326° |
| 2026-05-05 04:46 | 35.05069 | -87.72555 | 33951 ft | 393 kts | 326° |
| 2026-05-05 04:46 | 35.09811 | -87.75796 | 33947 ft | 394 kts | 326° |
| 2026-05-05 04:47 | 35.14594 | -87.79070 | 33942 ft | 394 kts | 326° |
| 2026-05-05 04:47 | 35.19376 | -87.82347 | 33941 ft | 394 kts | 326° |
| 2026-05-05 04:48 | 35.24159 | -87.85629 | 33944 ft | 394 kts | 326° |
| 2026-05-05 04:48 | 35.28942 | -87.88916 | 33942 ft | 394 kts | 326° |
| 2026-05-05 04:49 | 35.33722 | -87.92205 | 33939 ft | 394 kts | 326° |
| 2026-05-05 04:49 | 35.38504 | -87.95500 | 33938 ft | 394 kts | 326° |
| 2026-05-05 04:50 | 35.43251 | -87.98775 | 33942 ft | 394 kts | 326° |
| 2026-05-05 04:50 | 35.48035 | -88.02081 | 33944 ft | 395 kts | 326° |
| 2026-05-05 04:51 | 35.52814 | -88.05388 | 33946 ft | 394 kts | 326° |
| 2026-05-05 04:51 | 35.57592 | -88.08698 | 33950 ft | 394 kts | 326° |
| 2026-05-05 04:52 | 35.62371 | -88.12014 | 33954 ft | 394 kts | 326° |
| 2026-05-05 04:52 | 35.67152 | -88.15336 | 33956 ft | 395 kts | 326° |
| 2026-05-05 04:53 | 35.71927 | -88.18658 | 33952 ft | 395 kts | 326° |
| 2026-05-05 04:53 | 35.76705 | -88.21988 | 33952 ft | 395 kts | 326° |
| 2026-05-05 04:54 | 35.81486 | -88.25323 | 33948 ft | 395 kts | 326° |
| 2026-05-05 04:54 | 35.86232 | -88.28639 | 33943 ft | 395 kts | 326° |
| 2026-05-05 04:55 | 35.91020 | -88.31989 | 33921 ft | 396 kts | 326° |
| 2026-05-05 04:55 | 35.95809 | -88.35344 | 33918 ft | 396 kts | 326° |
| 2026-05-05 04:56 | 36.00603 | -88.38708 | 33915 ft | 396 kts | 326° |
| 2026-05-05 04:56 | 36.05395 | -88.42075 | 33906 ft | 396 kts | 326° |
| 2026-05-05 04:57 | 36.10184 | -88.45444 | 33923 ft | 396 kts | 326° |
| 2026-05-05 04:57 | 36.14971 | -88.48817 | 33927 ft | 396 kts | 326° |
| 2026-05-05 04:58 | 36.19753 | -88.52191 | 33912 ft | 396 kts | 326° |
| 2026-05-05 04:58 | 36.24536 | -88.55571 | 33914 ft | 396 kts | 325° |
| 2026-05-05 04:59 | 36.29314 | -88.58952 | 33913 ft | 395 kts | 325° |
| 2026-05-05 04:59 | 36.34061 | -88.62316 | 33918 ft | 395 kts | 325° |
| 2026-05-05 05:00 | 36.38831 | -88.65701 | 33913 ft | 395 kts | 325° |
| 2026-05-05 05:00 | 36.43601 | -88.69090 | 33892 ft | 395 kts | 325° |
| 2026-05-05 05:01 | 36.48370 | -88.72484 | 33894 ft | 395 kts | 325° |
| 2026-05-05 05:01 | 36.53139 | -88.75883 | 33892 ft | 395 kts | 325° |
| 2026-05-05 05:02 | 36.57904 | -88.79284 | 33884 ft | 395 kts | 325° |
| 2026-05-05 05:02 | 36.62672 | -88.82692 | 33880 ft | 395 kts | 325° |
| 2026-05-05 05:03 | 36.67444 | -88.86107 | 33879 ft | 395 kts | 325° |
| 2026-05-05 05:03 | 36.72209 | -88.89523 | 33872 ft | 395 kts | 325° |
| 2026-05-05 05:04 | 36.76942 | -88.92920 | 33871 ft | 395 kts | 325° |
| 2026-05-05 05:04 | 36.81699 | -88.96339 | 33870 ft | 395 kts | 325° |
| 2026-05-05 05:05 | 36.86462 | -88.99768 | 33865 ft | 394 kts | 325° |
| 2026-05-05 05:05 | 36.91213 | -89.03194 | 33864 ft | 394 kts | 325° |
| 2026-05-05 05:06 | 36.95965 | -89.06625 | 33868 ft | 394 kts | 325° |
| 2026-05-05 05:06 | 37.00682 | -89.10035 | 33870 ft | 393 kts | 325° |
| 2026-05-05 05:07 | 37.05418 | -89.13464 | 33870 ft | 393 kts | 325° |
| 2026-05-05 05:07 | 37.10143 | -89.16890 | 33875 ft | 392 kts | 325° |
| 2026-05-05 05:08 | 37.14867 | -89.20321 | 33873 ft | 392 kts | 325° |
| 2026-05-05 05:08 | 37.19588 | -89.23755 | 33868 ft | 392 kts | 325° |
| 2026-05-05 05:09 | 37.24304 | -89.27190 | 33865 ft | 391 kts | 325° |
| 2026-05-05 05:09 | 37.28985 | -89.30604 | 33846 ft | 391 kts | 325° |
| 2026-05-05 05:10 | 37.33690 | -89.34041 | 33843 ft | 391 kts | 325° |
| 2026-05-05 05:10 | 37.38386 | -89.37476 | 33832 ft | 391 kts | 325° |
| 2026-05-05 05:11 | 37.43091 | -89.40923 | 33833 ft | 390 kts | 325° |
| 2026-05-05 05:11 | 37.47759 | -89.44348 | 33827 ft | 390 kts | 325° |
| 2026-05-05 05:12 | 37.52448 | -89.47793 | 33820 ft | 391 kts | 325° |
| 2026-05-05 05:12 | 37.57144 | -89.51249 | 33815 ft | 391 kts | 325° |
| 2026-05-05 05:13 | 37.61841 | -89.54710 | 33817 ft | 391 kts | 325° |
| 2026-05-05 05:13 | 37.66543 | -89.58180 | 33817 ft | 392 kts | 325° |
| 2026-05-05 05:14 | 37.71252 | -89.61661 | 33811 ft | 392 kts | 324° |
| 2026-05-05 05:14 | 37.75966 | -89.65151 | 33807 ft | 393 kts | 324° |
| 2026-05-05 05:15 | 37.80693 | -89.68655 | 33803 ft | 394 kts | 324° |
| 2026-05-05 05:15 | 37.85425 | -89.72168 | 33810 ft | 395 kts | 324° |
| 2026-05-05 05:16 | 37.90165 | -89.75692 | 33809 ft | 396 kts | 324° |
| 2026-05-05 05:16 | 37.94911 | -89.79227 | 33811 ft | 396 kts | 324° |
| 2026-05-05 05:17 | 37.99669 | -89.82775 | 33804 ft | 397 kts | 324° |
| 2026-05-05 05:17 | 38.04427 | -89.86329 | 33803 ft | 397 kts | 325° |
| 2026-05-05 05:18 | 38.09189 | -89.89891 | 33793 ft | 398 kts | 325° |
| 2026-05-05 05:18 | 38.13959 | -89.93465 | 33789 ft | 398 kts | 325° |
| 2026-05-05 05:19 | 38.18724 | -89.97040 | 33778 ft | 398 kts | 325° |
| 2026-05-05 05:19 | 38.23491 | -90.00623 | 33773 ft | 398 kts | 325° |
| 2026-05-05 05:20 | 38.28252 | -90.04206 | 33765 ft | 398 kts | 325° |
| 2026-05-05 05:20 | 38.32977 | -90.07768 | 33760 ft | 397 kts | 325° |
| 2026-05-05 05:21 | 38.37733 | -90.11359 | 33752 ft | 397 kts | 325° |
| 2026-05-05 05:21 | 38.42484 | -90.14951 | 33747 ft | 397 kts | 324° |
| 2026-05-05 05:22 | 38.47232 | -90.18548 | 33744 ft | 397 kts | 324° |
| 2026-05-05 05:22 | 38.51975 | -90.22146 | 33741 ft | 397 kts | 324° |
| 2026-05-05 05:23 | 38.56727 | -90.25756 | 33743 ft | 397 kts | 324° |
| 2026-05-05 05:23 | 38.61473 | -90.29367 | 33745 ft | 397 kts | 324° |
| 2026-05-05 05:24 | 38.65421 | -90.32375 | 33740 ft | 397 kts | 324° |
| 2026-05-05 05:24 | 38.67797 | -90.34189 | 33617 ft | 400 kts | 326° |
| 2026-05-05 05:24 | 38.70192 | -90.36017 | 33702 ft | 401 kts | 326° |
| 2026-05-05 05:25 | 38.75813 | -90.40315 | 33744 ft | 408 kts | 325° |
| 2026-05-05 05:25 | 38.79924 | -90.43463 | 33747 ft | 414 kts | 325° |
| 2026-05-05 05:26 | 38.84869 | -90.47254 | 33721 ft | 419 kts | 325° |
| 2026-05-05 05:26 | 38.90150 | -90.50550 | 33718 ft | 425 kts | 332° |
| 2026-05-05 05:27 | 38.95604 | -90.53548 | 33718 ft | 427 kts | 332° |
| 2026-05-05 05:27 | 39.03793 | -90.58078 | 33713 ft | 427 kts | 331° |
| 2026-05-05 05:28 | 39.09246 | -90.61125 | 33719 ft | 427 kts | 331° |
| 2026-05-05 05:28 | 39.14690 | -90.64179 | 33717 ft | 426 kts | 330° |
| 2026-05-05 05:29 | 39.20124 | -90.67233 | 33711 ft | 426 kts | 330° |
| 2026-05-05 05:29 | 39.25552 | -90.70289 | 33710 ft | 425 kts | 330° |
| 2026-05-05 05:30 | 39.30970 | -90.73345 | 33717 ft | 425 kts | 330° |
| 2026-05-05 05:30 | 39.36380 | -90.76401 | 33735 ft | 424 kts | 330° |
| 2026-05-05 05:31 | 39.41777 | -90.79455 | 33754 ft | 423 kts | 330° |
| 2026-05-05 05:31 | 39.47164 | -90.82508 | 33770 ft | 422 kts | 329° |
| 2026-05-05 05:32 | 39.52542 | -90.85561 | 33781 ft | 421 kts | 329° |
| 2026-05-05 05:32 | 39.57907 | -90.88612 | 33784 ft | 421 kts | 329° |
| 2026-05-05 05:33 | 39.63262 | -90.91663 | 33787 ft | 420 kts | 328° |
| 2026-05-05 05:33 | 39.65934 | -90.93187 | 33970 ft | 420 kts | 328° |
| 2026-05-05 05:33 | 39.68608 | -90.94714 | 33984 ft | 419 kts | 328° |
| 2026-05-05 05:34 | 39.73944 | -90.97765 | 33982 ft | 419 kts | 328° |
| 2026-05-05 05:34 | 39.79276 | -91.00818 | 33955 ft | 418 kts | 328° |
| 2026-05-05 05:35 | 39.84566 | -91.03852 | 33739 ft | 418 kts | 328° |
| 2026-05-05 05:35 | 39.89892 | -91.06913 | 33754 ft | 418 kts | 328° |
| 2026-05-05 05:36 | 39.95210 | -91.09973 | 33757 ft | 418 kts | 328° |
| 2026-05-05 05:36 | 40.00529 | -91.13040 | 33754 ft | 418 kts | 328° |
| 2026-05-05 05:37 | 40.05850 | -91.16114 | 33744 ft | 418 kts | 328° |
| 2026-05-05 05:37 | 40.11171 | -91.19192 | 33743 ft | 418 kts | 328° |
| 2026-05-05 05:38 | 40.16495 | -91.22277 | 33733 ft | 419 kts | 328° |
| 2026-05-05 05:38 | 40.21822 | -91.25370 | 33748 ft | 419 kts | 329° |
| 2026-05-05 05:39 | 40.27157 | -91.28472 | 33747 ft | 420 kts | 329° |
| 2026-05-05 05:39 | 40.32491 | -91.31579 | 33764 ft | 420 kts | 329° |
| 2026-05-05 05:40 | 40.37825 | -91.34692 | 33778 ft | 419 kts | 329° |
| 2026-05-05 05:40 | 40.43154 | -91.37806 | 33769 ft | 419 kts | 329° |
| 2026-05-05 05:41 | 40.48476 | -91.40922 | 33771 ft | 418 kts | 329° |
| 2026-05-05 05:41 | 40.53786 | -91.44036 | 33768 ft | 418 kts | 329° |
| 2026-05-05 05:42 | 40.59090 | -91.47153 | 33781 ft | 417 kts | 329° |
| 2026-05-05 05:42 | 40.64379 | -91.50266 | 33781 ft | 416 kts | 329° |
| 2026-05-05 05:43 | 40.69663 | -91.53382 | 33781 ft | 416 kts | 329° |
| 2026-05-05 05:43 | 40.74944 | -91.56501 | 33780 ft | 416 kts | 329° |
| 2026-05-05 05:44 | 40.80225 | -91.59627 | 33782 ft | 416 kts | 329° |
| 2026-05-05 05:44 | 40.85520 | -91.62766 | 33797 ft | 418 kts | 329° |
| 2026-05-05 05:45 | 40.90830 | -91.65920 | 33801 ft | 419 kts | 329° |
| 2026-05-05 05:45 | 40.96156 | -91.69089 | 33797 ft | 421 kts | 329° |
| 2026-05-05 05:46 | 41.01469 | -91.72255 | 33797 ft | 422 kts | 328° |
| 2026-05-05 05:46 | 41.06828 | -91.75453 | 33792 ft | 423 kts | 328° |
| 2026-05-05 05:47 | 41.12196 | -91.78664 | 33780 ft | 424 kts | 328° |
| 2026-05-05 05:47 | 41.17571 | -91.81883 | 33785 ft | 424 kts | 328° |
| 2026-05-05 05:48 | 41.22940 | -91.85105 | 33789 ft | 423 kts | 328° |
| 2026-05-05 05:48 | 41.28305 | -91.88331 | 33788 ft | 423 kts | 328° |
| 2026-05-05 05:49 | 41.33656 | -91.91553 | 33787 ft | 422 kts | 328° |
| 2026-05-05 05:49 | 41.38997 | -91.94776 | 33790 ft | 421 kts | 328° |
| 2026-05-05 05:50 | 41.44322 | -91.97995 | 33797 ft | 419 kts | 328° |
| 2026-05-05 05:50 | 41.49628 | -92.01208 | 33793 ft | 418 kts | 327° |
| 2026-05-05 05:51 | 41.54920 | -92.04419 | 33799 ft | 417 kts | 327° |
| 2026-05-05 05:51 | 41.60193 | -92.07624 | 33794 ft | 416 kts | 327° |
| 2026-05-05 05:52 | 41.65416 | -92.10805 | 33802 ft | 415 kts | 327° |
| 2026-05-05 05:52 | 41.70661 | -92.14005 | 33800 ft | 414 kts | 327° |
| 2026-05-05 05:53 | 41.75889 | -92.17200 | 33793 ft | 412 kts | 326° |
| 2026-05-05 05:53 | 41.81098 | -92.20389 | 33794 ft | 411 kts | 326° |
| 2026-05-05 05:54 | 41.86284 | -92.23569 | 33792 ft | 409 kts | 326° |
| 2026-05-05 05:54 | 41.91450 | -92.26742 | 33786 ft | 407 kts | 326° |
| 2026-05-05 05:55 | 41.96586 | -92.29904 | 33797 ft | 405 kts | 326° |
| 2026-05-05 05:55 | 42.01704 | -92.33060 | 33798 ft | 404 kts | 326° |
| 2026-05-05 05:56 | 42.06797 | -92.36206 | 33802 ft | 402 kts | 326° |
| 2026-05-05 05:56 | 42.11858 | -92.39338 | 33802 ft | 400 kts | 325° |
| 2026-05-05 05:57 | 42.16899 | -92.42464 | 33797 ft | 398 kts | 325° |
| 2026-05-05 05:57 | 42.21914 | -92.45579 | 33805 ft | 396 kts | 325° |
| 2026-05-05 05:58 | 42.26910 | -92.48687 | 33805 ft | 394 kts | 325° |
| 2026-05-05 05:58 | 42.31881 | -92.51787 | 33795 ft | 393 kts | 324° |
| 2026-05-05 05:59 | 42.36837 | -92.54881 | 33806 ft | 392 kts | 324° |
| 2026-05-05 05:59 | 42.41772 | -92.58004 | 33829 ft | 391 kts | 324° |
| 2026-05-05 06:00 | 42.46682 | -92.61169 | 33836 ft | 391 kts | 323° |
| 2026-05-05 06:00 | 42.51604 | -92.64348 | 33832 ft | 392 kts | 323° |
| 2026-05-05 06:01 | 42.56511 | -92.67517 | 33837 ft | 394 kts | 323° |
| 2026-05-05 06:01 | 42.61498 | -92.70740 | 33826 ft | 395 kts | 323° |
| 2026-05-05 06:02 | 42.66467 | -92.73957 | 33822 ft | 396 kts | 323° |
| 2026-05-05 06:02 | 42.71450 | -92.77188 | 33816 ft | 397 kts | 323° |
| 2026-05-05 06:03 | 42.76436 | -92.80427 | 33817 ft | 397 kts | 323° |
| 2026-05-05 06:03 | 42.81386 | -92.83664 | 33824 ft | 398 kts | 323° |
| 2026-05-05 06:04 | 42.86367 | -92.86949 | 33828 ft | 398 kts | 323° |
| 2026-05-05 06:04 | 42.91355 | -92.90244 | 33831 ft | 398 kts | 323° |
| 2026-05-05 06:05 | 42.96342 | -92.93543 | 33828 ft | 398 kts | 322° |
| 2026-05-05 06:05 | 43.01328 | -92.96846 | 33827 ft | 398 kts | 322° |
| 2026-05-05 06:06 | 43.06312 | -93.00153 | 33831 ft | 398 kts | 322° |
| 2026-05-05 06:06 | 43.11301 | -93.03469 | 33837 ft | 398 kts | 322° |
| 2026-05-05 06:07 | 43.16285 | -93.06790 | 33832 ft | 399 kts | 322° |
| 2026-05-05 06:07 | 43.21273 | -93.10118 | 33835 ft | 399 kts | 322° |
| 2026-05-05 06:08 | 43.26247 | -93.13440 | 33821 ft | 392 kts | 322° |
| 2026-05-05 06:08 | 43.28650 | -93.15032 | 33810 ft | 375 kts | 322° |
| 2026-05-05 06:08 | 43.30951 | -93.16558 | 33807 ft | 359 kts | 321° |
| 2026-05-05 06:09 | 43.33146 | -93.18020 | 33812 ft | 343 kts | 320° |
| 2026-05-05 06:09 | 43.35244 | -93.19425 | 33812 ft | 330 kts | 320° |
| 2026-05-05 06:09 | 43.39370 | -93.22235 | 33845 ft | 335 kts | 320° |
| 2026-05-05 06:10 | 43.43593 | -93.25098 | 33850 ft | 346 kts | 320° |
| 2026-05-05 06:10 | 43.47973 | -93.28032 | 33843 ft | 355 kts | 324° |
| 2026-05-05 06:11 | 43.50424 | -93.28996 | 33839 ft | 379 kts | 339° |
| 2026-05-05 06:11 | 43.53140 | -93.29075 | 33852 ft | 399 kts | 348° |
| 2026-05-05 06:11 | 43.58723 | -93.28503 | 33843 ft | 404 kts | 350° |
| 2026-05-05 06:12 | 43.64321 | -93.27859 | 33847 ft | 403 kts | 349° |
| 2026-05-05 06:12 | 43.69906 | -93.27280 | 33832 ft | 402 kts | 349° |
| 2026-05-05 06:13 | 43.75475 | -93.26735 | 33835 ft | 400 kts | 349° |
| 2026-05-05 06:13 | 43.80122 | -93.26286 | 33836 ft | 399 kts | 349° |
| 2026-05-05 06:14 | 43.85610 | -93.25755 | 33835 ft | 397 kts | 349° |
| 2026-05-05 06:14 | 43.91120 | -93.25220 | 33842 ft | 396 kts | 348° |
| 2026-05-05 06:15 | 43.96614 | -93.24685 | 33851 ft | 396 kts | 349° |
| 2026-05-05 06:15 | 44.02120 | -93.24107 | 33842 ft | 397 kts | 349° |
| 2026-05-05 06:16 | 44.07622 | -93.23510 | 33847 ft | 397 kts | 349° |
| 2026-05-05 06:16 | 44.13134 | -93.22917 | 33850 ft | 397 kts | 349° |
| 2026-05-05 06:17 | 44.18651 | -93.22326 | 33850 ft | 398 kts | 348° |
| 2026-05-05 06:17 | 44.24168 | -93.21821 | 33851 ft | 397 kts | 348° |
| 2026-05-05 06:18 | 44.29692 | -93.21331 | 33854 ft | 398 kts | 348° |
| 2026-05-05 06:18 | 44.35212 | -93.20900 | 33853 ft | 397 kts | 348° |
| 2026-05-05 06:19 | 44.40786 | -93.19921 | 33864 ft | 415 kts | 358° |
| 2026-05-05 06:19 | 44.43595 | -93.18655 | 33799 ft | 443 kts | 17° |
| 2026-05-05 06:19 | 44.46179 | -93.16128 | 33892 ft | 457 kts | 25° |
| 2026-05-05 06:20 | 44.51272 | -93.10797 | 33850 ft | 456 kts | 24° |
| 2026-05-05 06:20 | 44.56422 | -93.05622 | 33846 ft | 455 kts | 23° |
| 2026-05-05 06:21 | 44.61560 | -93.00534 | 33833 ft | 450 kts | 17° |
| 2026-05-05 06:21 | 44.64349 | -92.98878 | 33849 ft | 414 kts | 358° |
| 2026-05-05 06:21 | 44.67047 | -92.98384 | 33821 ft | 387 kts | 343° |
| 2026-05-05 06:22 | 44.69596 | -92.98927 | 33846 ft | 359 kts | 330° |
| 2026-05-05 06:22 | 44.72053 | -92.99705 | 33826 ft | 368 kts | 336° |
| 2026-05-05 06:22 | 44.77258 | -93.00419 | 33834 ft | 381 kts | 342° |
| 2026-05-05 06:23 | 44.79792 | -93.01003 | 33789 ft | 351 kts | 322° |
| 2026-05-05 06:23 | 44.81650 | -93.02850 | 33835 ft | 313 kts | 297° |
| 2026-05-05 06:23 | 44.83534 | -93.08152 | 33809 ft | 301 kts | 277° |
| 2026-05-05 06:24 | 44.84774 | -93.13861 | 33844 ft | 313 kts | 290° |
| 2026-05-05 06:24 | 44.86954 | -93.19266 | 33828 ft | 321 kts | 294° |
| 2026-05-05 06:25 | 44.89295 | -93.24606 | 33823 ft | 317 kts | 294° |
| 2026-05-05 06:25 | 44.91601 | -93.29821 | 33836 ft | 312 kts | 294° |
| 2026-05-05 06:26 | 44.93903 | -93.35063 | 33842 ft | 316 kts | 294° |
| 2026-05-05 06:26 | 44.96216 | -93.40368 | 33833 ft | 319 kts | 294° |
| 2026-05-05 06:27 | 44.99706 | -93.48419 | 33828 ft | 322 kts | 294° |
| 2026-05-05 06:28 | 45.02039 | -93.53838 | 33828 ft | 323 kts | 294° |
| 2026-05-05 06:28 | 45.04372 | -93.59274 | 33822 ft | 323 kts | 294° |
| 2026-05-05 06:29 | 45.06698 | -93.64715 | 33832 ft | 323 kts | 294° |
| 2026-05-05 06:29 | 45.09001 | -93.70113 | 33832 ft | 322 kts | 294° |
| 2026-05-05 06:30 | 45.11306 | -93.75535 | 33832 ft | 321 kts | 294° |
| 2026-05-05 06:30 | 45.13605 | -93.80951 | 33833 ft | 320 kts | 294° |
| 2026-05-05 06:31 | 45.15893 | -93.86359 | 33835 ft | 320 kts | 294° |
| 2026-05-05 06:31 | 45.18173 | -93.91774 | 33829 ft | 320 kts | 294° |
| 2026-05-05 06:32 | 45.20447 | -93.97208 | 33855 ft | 321 kts | 294° |
| 2026-05-05 06:32 | 45.22717 | -94.02681 | 33858 ft | 323 kts | 294° |
| 2026-05-05 06:33 | 45.24994 | -94.08205 | 33860 ft | 326 kts | 294° |
| 2026-05-05 06:33 | 45.27276 | -94.13796 | 33858 ft | 329 kts | 294° |